Flight Track Log - Related Links

Times and Time Zones

All times are in EST time to prevent confusion due to time zone crossing. See the N612CT flight status page for this flight to view local times or setup timezone preferences in your user account.

Time Position Orientation Groundspeed Altitude Reporting Facility
EST Latitude Longitude Course Direction KTS MPH feet Rate Location/Type
Sun 08:44:00 AM 26.4582 -81.8931 341° North  Level FlightAware Approximate
Sun 08:45:00 AM 26.5091 -81.9127 341° North  Level FlightAware Approximate
Sun 08:46:00 AM 26.5600 -81.9323 341° North  Level FlightAware Approximate
Sun 08:47:00 AM 26.6110 -81.9520 341° North  Level FlightAware Approximate
Sun 08:48:00 AM 26.6619 -81.9717 341° North  Level FlightAware Approximate
Sun 08:49:00 AM 26.6997 -82.0147 291° West  Level Estimated
Sun 08:50:00 AM 26.7375 -82.0577 283° West  Level Estimated
Sun 08:51:00 AM 26.7814 -82.0926 325° Northwest  Level FlightAware Approximate
Sun 08:52:00 AM 26.8183 -82.1366 294° West  Level Estimated
Sun 08:53:00 AM 26.8552 -82.1807 294° West  Level Estimated
Sun 08:54:00 AM 26.8921 -82.2247 313° West  Level FlightAware Approximate
Sun 08:55:00 AM 26.9289 -82.2688 294° West  Level Estimated
Sun 08:56:00 AM 26.9657 -82.3130 294° West  Level Estimated
Sun 08:57:00 AM 27.0025 -82.3572 294° West  Level Estimated
Sun 08:58:00 AM 27.0393 -82.4014 294° West  Level Estimated
Sun 08:59:00 AM 27.0667 -82.4333 294° West  Level FlightAware Approximate
Sun 09:00:00 AM 27.0716 -82.4403 294° West  Level Estimated
Sun 09:00:27 AM 26.8667 -82.3167 294° West 173 199 4,000  Level Tampa TRACON
Sun 09:01:00 AM 27.0716 -82.4403 294° West  Level Estimated
Sun 09:01:03 AM 26.8833 -82.3333 318° Northwest 174 200 4,000  Level Tampa TRACON
Sun 09:02:00 AM 27.0716 -82.4403 294° West  Level Estimated
Sun 09:02:03 AM 26.9333 -82.3500 343° North 175 201 3,700  Level Tampa TRACON
Sun 09:03:00 AM 27.0716 -82.4403 294° West  Level Estimated
Sun 09:03:03 AM 26.9667 -82.3833 318° Northwest 175 201 3,000  Level Tampa TRACON
Sun 09:04:00 AM 27.0716 -82.4403 294° West  Level Estimated
Sun 09:04:04 AM 27.0167 -82.4000 343° North 167 192 2,300  Level Tampa TRACON
Sun 09:05:00 AM 27.0716 -82.4403 294° West  Level Estimated

Login

Don't have an account? Register now (free) for customized features, flight alerts, and more!